createdAt,value
2022-12-14T00:00:18.039Z,8.27
2022-12-14T00:03:05.128Z,8.33
2022-12-14T00:05:52.186Z,8.07
2022-12-14T00:08:41.900Z,8.60
2022-12-14T00:11:29.916Z,8.37
2022-12-14T00:14:16.994Z,8.43
2022-12-14T00:17:04.072Z,8.37
2022-12-14T00:19:51.545Z,8.13
2022-12-14T00:22:38.482Z,7.73
2022-12-14T00:25:25.782Z,8.40
2022-12-14T00:28:12.726Z,7.93
2022-12-14T00:30:59.724Z,7.63
2022-12-14T00:33:47.283Z,7.20
2022-12-14T00:36:36.397Z,7.80
2022-12-14T00:39:23.367Z,7.83
2022-12-14T00:42:10.327Z,7.43
2022-12-14T00:44:57.284Z,7.80
2022-12-14T00:47:44.449Z,6.77
2022-12-14T00:50:31.403Z,7.30
2022-12-14T00:53:18.770Z,7.40
2022-12-14T00:56:07.465Z,7.70
2022-12-14T00:58:54.588Z,7.53
2022-12-14T01:01:41.637Z,7.50
2022-12-14T01:04:29.381Z,6.83
2022-12-14T01:07:16.363Z,7.27
2022-12-14T01:10:04.369Z,6.60
2022-12-14T01:12:51.830Z,6.80
2022-12-14T01:15:38.850Z,6.80
2022-12-14T01:18:25.816Z,7.13
2022-12-14T01:21:15.762Z,7.50
2022-12-14T01:24:04.591Z,7.37
2022-12-14T01:26:51.983Z,7.10
2022-12-14T01:29:38.973Z,7.67
2022-12-14T01:32:25.929Z,7.10
2022-12-14T01:35:13.106Z,7.03
2022-12-14T01:38:00.072Z,7.03
2022-12-14T01:40:47.242Z,7.07
2022-12-14T01:43:48.927Z,7.53
2022-12-14T01:46:41.728Z,7.30
2022-12-14T01:49:35.226Z,7.27
2022-12-14T01:52:35.824Z,7.40
2022-12-14T01:55:26.752Z,6.90
2022-12-14T01:58:18.872Z,7.07
2022-12-14T02:01:06.074Z,6.97
2022-12-14T02:03:53.970Z,6.73
2022-12-14T02:06:44.035Z,6.90
2022-12-14T02:09:36.516Z,6.37
2022-12-14T02:12:50.933Z,6.90
2022-12-14T02:15:38.895Z,6.77
2022-12-14T02:18:28.093Z,6.60
2022-12-14T02:21:30.333Z,6.73
2022-12-14T02:24:33.080Z,6.63
2022-12-14T02:27:41.091Z,6.50
2022-12-14T02:30:34.837Z,6.50
2022-12-14T02:33:40.847Z,6.00
2022-12-14T02:37:06.242Z,6.20
2022-12-14T02:40:17.690Z,5.80
2022-12-14T02:43:25.114Z,5.97
2022-12-14T02:46:25.310Z,6.00
2022-12-14T02:49:51.363Z,6.30
2022-12-14T02:52:53.876Z,6.43
2022-12-14T02:55:51.277Z,6.20
2022-12-14T02:58:41.708Z,6.03
2022-12-14T03:01:29.913Z,6.07
2022-12-14T03:04:17.067Z,6.73
2022-12-14T03:07:33.854Z,6.30
2022-12-14T03:10:27.440Z,5.93
2022-12-14T03:13:38.086Z,6.43
2022-12-14T03:16:31.871Z,6.60
2022-12-14T03:19:37.517Z,6.97
2022-12-14T03:22:38.366Z,6.43
2022-12-14T03:25:32.750Z,6.73
2022-12-14T03:28:52.303Z,6.60
2022-12-14T03:31:53.918Z,7.17
2022-12-14T03:34:49.436Z,6.23
2022-12-14T03:37:53.401Z,6.90
2022-12-14T03:40:55.255Z,7.27
2022-12-14T03:44:15.938Z,7.17
2022-12-14T03:47:16.296Z,6.23
2022-12-14T03:50:21.706Z,7.33
2022-12-14T03:53:23.999Z,7.00
2022-12-14T03:56:37.445Z,6.17
2022-12-14T03:59:35.821Z,6.97
2022-12-14T04:02:29.540Z,7.27
2022-12-14T04:05:32.722Z,7.00
2022-12-14T04:08:35.618Z,7.00
2022-12-14T04:11:43.013Z,7.10
2022-12-14T04:14:55.095Z,6.80
2022-12-14T04:18:04.114Z,7.00
2022-12-14T04:21:01.241Z,6.00
2022-12-14T04:24:13.271Z,6.53
2022-12-14T04:27:05.333Z,7.17
2022-12-14T04:29:57.659Z,7.60
2022-12-14T04:32:51.963Z,7.10
2022-12-14T04:35:41.963Z,7.13
2022-12-14T04:38:36.066Z,7.10
2022-12-14T04:41:28.426Z,6.33
2022-12-14T04:44:26.528Z,7.20
2022-12-14T04:47:17.683Z,7.00
2022-12-14T04:50:14.126Z,6.83
2022-12-14T04:53:08.875Z,6.63
2022-12-14T04:56:08.053Z,7.33
2022-12-14T04:58:55.135Z,7.40
2022-12-14T05:01:57.024Z,7.17
2022-12-14T05:05:11.205Z,6.50
2022-12-14T05:08:21.402Z,6.53
2022-12-14T05:11:52.553Z,7.13
2022-12-14T05:14:42.493Z,7.20
2022-12-14T05:17:29.713Z,6.43
2022-12-14T05:20:22.417Z,7.30
2022-12-14T05:23:09.690Z,7.40
2022-12-14T05:25:56.645Z,7.63
2022-12-14T05:28:47.284Z,7.07
2022-12-14T05:31:37.480Z,7.47
2022-12-14T05:34:24.948Z,7.63
2022-12-14T05:37:18.033Z,7.40
2022-12-14T05:40:06.187Z,7.10
2022-12-14T05:43:04.611Z,7.30
2022-12-14T05:46:01.876Z,6.63
2022-12-14T05:48:49.542Z,6.67
2022-12-14T05:51:36.712Z,6.57
2022-12-14T05:54:23.697Z,7.07
2022-12-14T05:57:10.844Z,6.77
2022-12-14T05:59:57.776Z,6.50
2022-12-14T06:02:44.797Z,6.67
2022-12-14T06:05:31.962Z,6.53
2022-12-14T06:08:18.931Z,6.30
2022-12-14T06:11:14.446Z,6.97
2022-12-14T06:14:01.384Z,6.83
2022-12-14T06:16:48.322Z,6.77
2022-12-14T06:19:35.266Z,6.73
2022-12-14T06:22:22.212Z,6.03
2022-12-14T06:25:09.362Z,6.47
2022-12-14T06:27:56.342Z,6.10
2022-12-14T06:30:46.718Z,6.13
2022-12-14T06:33:37.759Z,6.77
2022-12-14T06:36:35.742Z,7.20
2022-12-14T06:39:22.675Z,6.60
2022-12-14T06:42:09.916Z,6.10
2022-12-14T06:44:56.887Z,6.47
2022-12-14T06:47:43.868Z,6.27
2022-12-14T06:50:30.920Z,6.23
2022-12-14T06:53:17.854Z,6.07
2022-12-14T06:56:10.116Z,5.83
2022-12-14T06:58:57.601Z,6.30
2022-12-14T07:01:46.045Z,6.10
2022-12-14T07:04:37.070Z,7.30
2022-12-14T07:07:24.042Z,6.17
2022-12-14T07:10:12.760Z,6.97
2022-12-14T07:12:59.708Z,6.27
2022-12-14T07:15:54.343Z,6.50
2022-12-14T07:18:41.356Z,6.17
2022-12-14T07:21:28.405Z,6.53
2022-12-14T07:24:15.483Z,6.57
2022-12-14T07:27:02.439Z,6.23
2022-12-14T07:29:49.395Z,6.93
2022-12-14T07:32:36.329Z,7.00
2022-12-14T07:35:23.289Z,6.50
2022-12-14T07:38:10.232Z,6.30
2022-12-14T07:41:05.739Z,6.80
2022-12-14T07:43:55.024Z,6.23
2022-12-14T07:46:42.158Z,6.70
2022-12-14T07:49:29.409Z,6.67
2022-12-14T07:52:16.730Z,6.87
2022-12-14T07:55:05.009Z,7.00
2022-12-14T07:57:51.954Z,6.60
2022-12-14T08:00:38.893Z,7.23
2022-12-14T08:03:31.165Z,7.00
2022-12-14T08:06:19.771Z,6.50
2022-12-14T08:09:08.208Z,6.60
2022-12-14T08:11:55.158Z,7.40
2022-12-14T08:14:42.191Z,6.83
2022-12-14T08:17:29.156Z,6.43
2022-12-14T08:20:16.155Z,7.57
2022-12-14T08:23:03.457Z,7.13
2022-12-14T08:25:57.252Z,7.17
2022-12-14T08:28:44.579Z,7.57
2022-12-14T08:31:32.428Z,7.70
2022-12-14T08:34:22.673Z,7.67
2022-12-14T08:37:10.362Z,7.77
2022-12-14T08:39:57.299Z,8.00
2022-12-14T08:42:44.249Z,7.40
2022-12-14T08:45:31.265Z,7.70
2022-12-14T08:48:18.172Z,7.57
2022-12-14T08:51:07.836Z,7.90
2022-12-14T08:53:55.967Z,7.97
2022-12-14T08:56:43.000Z,7.90
2022-12-14T08:59:59.696Z,8.50
2022-12-14T09:02:37.717Z,8.20
2022-12-14T09:05:25.346Z,8.20
2022-12-14T09:08:12.286Z,7.60
2022-12-14T09:11:00.401Z,7.97
2022-12-14T09:13:47.858Z,8.57
2022-12-14T09:16:35.010Z,8.10
2022-12-14T09:19:22.166Z,9.43
2022-12-14T09:22:09.565Z,9.40
2022-12-14T09:24:56.756Z,8.33
2022-12-14T09:27:43.719Z,8.50
2022-12-14T09:30:30.671Z,8.23
2022-12-14T09:33:17.644Z,8.00
2022-12-14T09:36:11.357Z,8.30
2022-12-14T09:38:59.363Z,8.53
2022-12-14T09:42:16.808Z,8.00
2022-12-14T09:45:26.180Z,8.63
2022-12-14T09:48:24.986Z,9.63
2022-12-14T09:51:17.433Z,8.50
2022-12-14T09:54:12.682Z,8.67
2022-12-14T09:57:15.150Z,8.60
2022-12-14T10:00:02.373Z,9.57
2022-12-14T10:03:33.270Z,8.93
2022-12-14T10:06:40.485Z,8.50
2022-12-14T10:09:49.250Z,8.80
2022-12-14T10:12:57.088Z,9.33
2022-12-14T10:16:31.683Z,9.00
2022-12-14T10:19:39.121Z,8.50
2022-12-14T10:22:32.519Z,9.40
2022-12-14T10:25:31.106Z,10.27
2022-12-14T10:28:27.798Z,10.27
2022-12-14T10:31:25.447Z,9.80
2022-12-14T10:34:18.872Z,9.37
2022-12-14T10:37:12.185Z,9.23
2022-12-14T10:40:33.207Z,9.30
2022-12-14T10:43:44.637Z,9.23
2022-12-14T10:46:50.295Z,9.40
2022-12-14T10:49:46.518Z,9.40
2022-12-14T10:52:41.558Z,10.07
2022-12-14T10:55:34.471Z,9.57
2022-12-14T10:58:21.422Z,10.90
2022-12-14T11:01:14.599Z,10.00
2022-12-14T11:04:01.644Z,11.03
2022-12-14T11:06:48.958Z,11.07
2022-12-14T11:09:37.330Z,10.10
2022-12-14T11:12:27.438Z,10.20
2022-12-14T11:15:27.697Z,9.87
2022-12-14T11:18:17.517Z,9.87
2022-12-14T11:21:06.027Z,10.30
2022-12-14T11:23:54.792Z,9.60
2022-12-14T11:26:42.902Z,9.60
2022-12-14T11:29:31.743Z,10.10
2022-12-14T11:32:27.860Z,9.90
2022-12-14T11:35:20.197Z,10.70
2022-12-14T11:38:15.459Z,10.60
2022-12-14T11:41:10.575Z,10.87
2022-12-14T11:44:16.737Z,10.63
2022-12-14T11:47:13.631Z,10.10
2022-12-14T11:50:00.589Z,11.10
2022-12-14T11:52:47.540Z,10.33
2022-12-14T11:55:39.080Z,9.70
2022-12-14T11:58:33.217Z,10.20
2022-12-14T12:01:25.654Z,11.07
2022-12-14T12:04:16.355Z,11.37
2022-12-14T12:07:22.768Z,10.63
2022-12-14T12:10:09.619Z,9.83
2022-12-14T12:12:59.780Z,10.00
2022-12-14T12:15:51.865Z,10.13
2022-12-14T12:18:53.524Z,10.20
2022-12-14T12:21:42.924Z,9.53
2022-12-14T12:24:55.178Z,9.53
2022-12-14T12:27:54.018Z,9.97
2022-12-14T12:30:45.145Z,10.13
2022-12-14T12:34:01.692Z,11.50
2022-12-14T12:37:24.113Z,11.17
2022-12-14T12:40:02.614Z,10.53
2022-12-14T12:42:49.505Z,10.10
2022-12-14T12:45:45.644Z,10.10
2022-12-14T12:48:41.535Z,10.23
2022-12-14T12:51:32.453Z,12.77
2022-12-14T12:54:40.693Z,11.90
2022-12-14T12:57:33.599Z,10.47
2022-12-14T13:00:25.096Z,10.10
2022-12-14T13:03:38.827Z,11.77
2022-12-14T13:06:40.566Z,9.80
2022-12-14T13:09:40.578Z,10.70
2022-12-14T13:12:35.259Z,10.77
2022-12-14T13:15:34.722Z,9.97
2022-12-14T13:18:56.424Z,9.63
2022-12-14T13:21:38.309Z,10.20
2022-12-14T13:24:25.271Z,10.07
2022-12-14T13:27:36.880Z,10.67
2022-12-14T13:30:51.292Z,10.33
2022-12-14T13:33:41.619Z,10.93
2022-12-14T13:37:04.049Z,10.37
2022-12-14T13:39:51.043Z,11.10
2022-12-14T13:43:31.670Z,10.87
2022-12-14T13:46:25.017Z,9.93
2022-12-14T13:49:21.092Z,10.97
2022-12-14T13:52:30.542Z,11.00
2022-12-14T13:55:36.808Z,11.23
2022-12-14T13:58:42.088Z,13.13
2022-12-14T14:01:47.235Z,11.73
2022-12-14T14:04:36.386Z,13.50
2022-12-14T14:07:23.246Z,12.20
2022-12-14T14:10:35.914Z,11.20
2022-12-14T14:13:28.709Z,10.57
2022-12-14T14:16:44.731Z,11.10
2022-12-14T14:19:39.560Z,11.17
2022-12-14T14:22:29.546Z,11.77
2022-12-14T14:25:34.770Z,11.60
2022-12-14T14:28:29.473Z,10.73
2022-12-14T14:31:16.592Z,11.17
2022-12-14T14:34:04.831Z,11.90
2022-12-14T14:36:52.339Z,10.60
2022-12-14T14:39:57.169Z,10.57
2022-12-14T14:42:56.395Z,10.70
2022-12-14T14:45:53.373Z,10.60
2022-12-14T14:48:51.638Z,11.10
2022-12-14T14:51:39.035Z,11.03
2022-12-14T14:55:06.911Z,10.83
2022-12-14T14:57:56.210Z,10.97
2022-12-14T15:01:03.220Z,11.73
2022-12-14T15:04:02.043Z,13.93
2022-12-14T15:06:54.132Z,11.93
2022-12-14T15:09:50.291Z,11.03
2022-12-14T15:12:43.727Z,11.17
2022-12-14T15:15:57.262Z,10.20
2022-12-14T15:18:44.260Z,11.33
2022-12-14T15:21:32.342Z,11.10
2022-12-14T15:24:21.087Z,11.90
2022-12-14T15:27:30.316Z,11.00
2022-12-14T15:30:23.324Z,11.33
2022-12-14T15:33:36.309Z,11.13
2022-12-14T15:36:30.759Z,11.27
2022-12-14T15:39:39.711Z,10.97
2022-12-14T15:42:27.096Z,11.83
2022-12-14T15:45:18.326Z,11.20
2022-12-14T15:48:21.397Z,12.17
2022-12-14T15:51:14.120Z,22.57
2022-12-14T15:54:03.931Z,17.47
2022-12-14T15:56:55.653Z,13.27
2022-12-14T15:59:44.845Z,12.47
2022-12-14T16:02:41.978Z,13.17
2022-12-14T16:05:29.736Z,13.27
2022-12-14T16:08:17.073Z,13.70
2022-12-14T16:11:12.833Z,12.53
2022-12-14T16:14:03.393Z,12.47
2022-12-14T16:16:50.984Z,13.77
2022-12-14T16:19:58.126Z,14.77
2022-12-14T16:23:14.489Z,18.00
2022-12-14T16:26:20.452Z,15.33
2022-12-14T16:29:28.784Z,15.00
2022-12-14T16:32:16.510Z,13.90
2022-12-14T16:35:03.757Z,13.43
2022-12-14T16:37:53.686Z,12.57
2022-12-14T16:40:48.489Z,13.40
2022-12-14T16:43:41.730Z,16.70
2022-12-14T16:46:28.712Z,14.13
2022-12-14T16:49:29.641Z,11.93
2022-12-14T16:52:26.204Z,16.30
2022-12-14T16:55:20.267Z,22.73
2022-12-14T16:58:17.733Z,18.47
2022-12-14T17:01:07.790Z,15.63
2022-12-14T17:04:06.519Z,13.97
2022-12-14T17:06:56.013Z,13.83
2022-12-14T17:09:42.987Z,12.80
2022-12-14T17:12:30.003Z,12.23
2022-12-14T17:15:20.054Z,13.43
2022-12-14T17:18:07.786Z,14.03
2022-12-14T17:20:54.897Z,13.23
2022-12-14T17:23:43.330Z,12.37
2022-12-14T17:26:32.101Z,13.17
2022-12-14T17:29:24.764Z,13.13
2022-12-14T17:32:14.923Z,13.47
2022-12-14T17:35:01.983Z,12.43
2022-12-14T17:37:49.325Z,12.70
2022-12-14T17:40:38.632Z,13.13
2022-12-14T17:43:29.592Z,23.93
2022-12-14T17:46:17.024Z,58.13
2022-12-14T17:49:06.940Z,42.27
2022-12-14T17:51:54.925Z,36.53
2022-12-14T17:54:41.944Z,42.93
2022-12-14T17:57:28.994Z,46.33
2022-12-14T18:00:47.522Z,44.07
2022-12-14T18:03:39.216Z,21.47
2022-12-14T18:06:26.262Z,18.27
2022-12-14T18:09:13.737Z,15.73
2022-12-14T18:15:24.266Z,12.97
2022-12-14T18:18:12.508Z,12.63
2022-12-14T18:21:02.424Z,12.83
2022-12-14T18:23:50.256Z,13.57
2022-12-14T18:26:38.224Z,12.57
2022-12-14T18:29:26.426Z,12.83
2022-12-14T18:32:14.664Z,15.40
2022-12-14T18:35:01.613Z,15.50
2022-12-14T18:37:49.776Z,14.53
2022-12-14T18:40:37.704Z,14.17
2022-12-14T18:43:27.421Z,14.03
2022-12-14T18:46:15.482Z,13.37
2022-12-14T18:49:03.484Z,12.13
2022-12-14T18:51:50.456Z,12.70
2022-12-14T18:54:37.410Z,12.63
2022-12-14T18:57:24.334Z,11.90
2022-12-14T19:00:13.752Z,12.90
2022-12-14T19:03:03.969Z,13.83
2022-12-14T19:05:51.175Z,12.67
2022-12-14T19:08:39.836Z,13.03
2022-12-14T19:11:32.058Z,12.63
2022-12-14T19:14:19.434Z,12.97
2022-12-14T19:17:07.388Z,13.67
2022-12-14T19:19:54.323Z,12.97
2022-12-14T19:22:42.304Z,13.53
2022-12-14T19:25:29.265Z,13.23
2022-12-14T19:28:31.483Z,12.50
2022-12-14T19:31:19.727Z,13.30
2022-12-14T19:34:06.868Z,13.70
2022-12-14T19:36:53.873Z,13.57
2022-12-14T19:39:40.807Z,13.33
2022-12-14T19:42:32.116Z,14.10
2022-12-14T19:45:19.156Z,14.13
2022-12-14T19:48:11.441Z,13.93
2022-12-14T19:51:11.237Z,13.97
2022-12-14T19:53:58.290Z,14.33
2022-12-14T19:56:46.332Z,13.87
2022-12-14T19:59:36.305Z,16.17
2022-12-14T20:02:24.467Z,14.13
2022-12-14T20:05:11.950Z,15.13
2022-12-14T20:07:59.897Z,14.00
2022-12-14T20:10:47.741Z,14.70
2022-12-14T20:13:35.102Z,16.17
2022-12-14T20:16:25.705Z,19.03
2022-12-14T20:19:13.716Z,17.80
2022-12-14T20:22:00.730Z,22.33
2022-12-14T20:24:48.623Z,25.27
2022-12-14T20:27:40.591Z,36.43
2022-12-14T20:30:30.477Z,36.13
2022-12-14T20:33:17.473Z,30.63
2022-12-14T20:36:04.726Z,27.87
2022-12-14T20:38:57.625Z,23.83
2022-12-14T20:41:44.783Z,24.33
2022-12-14T20:44:31.956Z,27.13
2022-12-14T20:47:19.144Z,27.30
2022-12-14T20:50:06.471Z,29.90
2022-12-14T20:52:54.565Z,27.43
2022-12-14T20:55:41.691Z,27.73
2022-12-14T20:58:28.753Z,30.50
2022-12-14T21:01:17.333Z,34.57
2022-12-14T21:04:05.518Z,27.57
2022-12-14T21:06:52.666Z,31.87
2022-12-14T21:09:39.751Z,42.20
2022-12-14T21:12:26.936Z,36.30
2022-12-14T21:15:14.469Z,23.50
2022-12-14T21:18:01.654Z,18.37
2022-12-14T21:20:50.314Z,17.83
2022-12-14T21:23:37.432Z,17.63
2022-12-14T21:26:26.471Z,16.50
2022-12-14T21:29:14.206Z,16.33
2022-12-14T21:32:01.313Z,16.00
2022-12-14T21:34:49.421Z,15.70
2022-12-14T21:37:38.308Z,15.53
2022-12-14T21:40:43.587Z,15.93
2022-12-14T21:43:30.931Z,15.07
2022-12-14T21:46:19.090Z,15.07
2022-12-14T21:49:09.695Z,15.47
2022-12-14T21:51:56.988Z,14.87
2022-12-14T21:54:44.151Z,15.67
2022-12-14T21:57:50.773Z,15.73
2022-12-14T22:00:38.205Z,14.73
2022-12-14T22:03:25.245Z,15.33
2022-12-14T22:06:12.311Z,15.50
2022-12-14T22:09:00.990Z,15.63
2022-12-14T22:11:48.336Z,15.60
2022-12-14T22:14:36.113Z,18.90
2022-12-14T22:17:23.084Z,17.37
2022-12-14T22:20:10.916Z,17.67
2022-12-14T22:22:58.158Z,15.93
2022-12-14T22:25:49.971Z,14.40
2022-12-14T22:28:36.903Z,14.47
2022-12-14T22:31:24.032Z,14.77
2022-12-14T22:34:17.242Z,15.23
2022-12-14T22:37:04.187Z,15.47
2022-12-14T22:39:51.583Z,14.93
2022-12-14T22:42:38.532Z,14.63
2022-12-14T22:45:26.764Z,14.03
2022-12-14T22:48:13.772Z,15.47
2022-12-14T22:51:13.858Z,15.00
2022-12-14T22:54:00.828Z,14.77
2022-12-14T22:56:53.201Z,14.17
2022-12-14T22:59:49.884Z,15.47
2022-12-14T23:02:37.457Z,14.07
2022-12-14T23:05:24.544Z,14.33
2022-12-14T23:08:11.493Z,15.43
2022-12-14T23:11:16.941Z,14.37
2022-12-14T23:14:22.484Z,14.50
2022-12-14T23:17:28.015Z,14.37
2022-12-14T23:20:33.987Z,15.13
2022-12-14T23:23:39.516Z,14.60
2022-12-14T23:26:45.726Z,14.47
2022-12-14T23:29:51.415Z,14.03
2022-12-14T23:32:57.111Z,15.30
2022-12-14T23:36:02.804Z,15.27
2022-12-14T23:39:08.185Z,15.70
2022-12-14T23:42:13.555Z,14.57
2022-12-14T23:45:19.410Z,14.33
2022-12-14T23:48:24.978Z,15.50
2022-12-14T23:51:30.616Z,16.33
2022-12-14T23:54:36.157Z,14.20
2022-12-14T23:57:41.746Z,15.53
